sensor_id;sensor_type;location;lat;lon;timestamp;P1;durP1;ratioP1;P2;durP2;ratioP2
12005;SDS011;6062;47.294;12.182;2022-10-16T00:01:06;0.77;;;0.70;;
12005;SDS011;6062;47.294;12.182;2022-10-16T00:03:39;0.70;;;0.70;;
12005;SDS011;6062;47.294;12.182;2022-10-16T00:06:06;1.58;;;0.68;;
12005;SDS011;6062;47.294;12.182;2022-10-16T00:08:35;1.13;;;0.70;;
12005;SDS011;6062;47.294;12.182;2022-10-16T00:11:24;0.60;;;0.60;;
12005;SDS011;6062;47.294;12.182;2022-10-16T00:13:56;0.65;;;0.65;;
12005;SDS011;6062;47.294;12.182;2022-10-16T00:16:25;0.80;;;0.80;;
12005;SDS011;6062;47.294;12.182;2022-10-16T00:18:53;0.68;;;0.60;;
12005;SDS011;6062;47.294;12.182;2022-10-16T00:21:20;3.67;;;0.68;;
12005;SDS011;6062;47.294;12.182;2022-10-16T00:23:50;0.50;;;0.50;;
12005;SDS011;6062;47.294;12.182;2022-10-16T00:26:18;0.60;;;0.60;;
12005;SDS011;6062;47.294;12.182;2022-10-16T00:28:48;0.40;;;0.40;;
12005;SDS011;6062;47.294;12.182;2022-10-16T00:31:15;0.57;;;0.57;;
12005;SDS011;6062;47.294;12.182;2022-10-16T00:33:44;0.63;;;0.60;;
12005;SDS011;6062;47.294;12.182;2022-10-16T00:36:12;0.50;;;0.50;;
12005;SDS011;6062;47.294;12.182;2022-10-16T00:38:40;2.33;;;0.90;;
12005;SDS011;6062;47.294;12.182;2022-10-16T00:41:07;0.70;;;0.50;;
12005;SDS011;6062;47.294;12.182;2022-10-16T00:46:20;0.60;;;0.60;;
12005;SDS011;6062;47.294;12.182;2022-10-16T00:49:14;0.40;;;0.40;;
12005;SDS011;6062;47.294;12.182;2022-10-16T00:51:43;0.57;;;0.57;;
12005;SDS011;6062;47.294;12.182;2022-10-16T00:54:18;0.50;;;0.50;;
12005;SDS011;6062;47.294;12.182;2022-10-16T00:56:49;0.93;;;0.60;;
12005;SDS011;6062;47.294;12.182;2022-10-16T00:59:20;0.60;;;0.60;;
12005;SDS011;6062;47.294;12.182;2022-10-16T01:01:51;0.50;;;0.50;;
12005;SDS011;6062;47.294;12.182;2022-10-16T01:04:18;0.40;;;0.40;;
12005;SDS011;6062;47.294;12.182;2022-10-16T01:09:57;1.42;;;0.57;;
12005;SDS011;6062;47.294;12.182;2022-10-16T01:12:54;0.50;;;0.50;;
12005;SDS011;6062;47.294;12.182;2022-10-16T01:15:30;0.85;;;0.50;;
12005;SDS011;6062;47.294;12.182;2022-10-16T01:21:44;0.50;;;0.50;;
12005;SDS011;6062;47.294;12.182;2022-10-16T01:24:09;0.60;;;0.60;;
12005;SDS011;6062;47.294;12.182;2022-10-16T01:27:02;0.50;;;0.50;;
12005;SDS011;6062;47.294;12.182;2022-10-16T01:32:59;0.60;;;0.57;;
12005;SDS011;6062;47.294;12.182;2022-10-16T01:35:36;0.60;;;0.60;;
12005;SDS011;6062;47.294;12.182;2022-10-16T01:38:16;0.73;;;0.70;;
12005;SDS011;6062;47.294;12.182;2022-10-16T01:40:52;0.60;;;0.60;;
12005;SDS011;6062;47.294;12.182;2022-10-16T01:43:27;0.60;;;0.60;;
12005;SDS011;6062;47.294;12.182;2022-10-16T01:46:00;0.50;;;0.50;;
12005;SDS011;6062;47.294;12.182;2022-10-16T01:48:27;0.50;;;0.50;;
12005;SDS011;6062;47.294;12.182;2022-10-16T01:51:03;0.47;;;0.47;;
12005;SDS011;6062;47.294;12.182;2022-10-16T01:53:33;0.60;;;0.60;;
12005;SDS011;6062;47.294;12.182;2022-10-16T01:56:00;0.60;;;0.60;;
12005;SDS011;6062;47.294;12.182;2022-10-16T01:58:30;0.60;;;0.60;;
12005;SDS011;6062;47.294;12.182;2022-10-16T02:01:03;0.50;;;0.50;;
12005;SDS011;6062;47.294;12.182;2022-10-16T02:03:34;0.70;;;0.70;;
12005;SDS011;6062;47.294;12.182;2022-10-16T02:06:06;0.80;;;0.80;;
12005;SDS011;6062;47.294;12.182;2022-10-16T02:08:32;0.60;;;0.50;;
12005;SDS011;6062;47.294;12.182;2022-10-16T02:11:00;1.15;;;0.70;;
12005;SDS011;6062;47.294;12.182;2022-10-16T02:13:33;0.60;;;0.60;;
12005;SDS011;6062;47.294;12.182;2022-10-16T02:16:07;0.70;;;0.68;;
12005;SDS011;6062;47.294;12.182;2022-10-16T02:18:35;0.60;;;0.60;;
12005;SDS011;6062;47.294;12.182;2022-10-16T02:21:14;0.50;;;0.50;;
12005;SDS011;6062;47.294;12.182;2022-10-16T02:23:52;0.60;;;0.60;;
12005;SDS011;6062;47.294;12.182;2022-10-16T02:27:02;0.80;;;0.70;;
12005;SDS011;6062;47.294;12.182;2022-10-16T02:29:34;0.60;;;0.60;;
12005;SDS011;6062;47.294;12.182;2022-10-16T02:32:13;0.60;;;0.60;;
12005;SDS011;6062;47.294;12.182;2022-10-16T02:34:44;0.70;;;0.70;;
12005;SDS011;6062;47.294;12.182;2022-10-16T02:37:13;0.63;;;0.63;;
12005;SDS011;6062;47.294;12.182;2022-10-16T02:39:40;0.80;;;0.70;;
12005;SDS011;6062;47.294;12.182;2022-10-16T02:42:09;0.70;;;0.70;;
12005;SDS011;6062;47.294;12.182;2022-10-16T02:44:40;0.50;;;0.50;;
12005;SDS011;6062;47.294;12.182;2022-10-16T02:47:06;0.80;;;0.80;;
12005;SDS011;6062;47.294;12.182;2022-10-16T02:49:31;0.60;;;0.60;;
12005;SDS011;6062;47.294;12.182;2022-10-16T02:51:57;0.60;;;0.60;;
12005;SDS011;6062;47.294;12.182;2022-10-16T02:54:23;0.68;;;0.68;;
12005;SDS011;6062;47.294;12.182;2022-10-16T02:56:49;0.70;;;0.70;;
12005;SDS011;6062;47.294;12.182;2022-10-16T02:59:14;0.60;;;0.60;;
12005;SDS011;6062;47.294;12.182;2022-10-16T03:01:40;0.70;;;0.70;;
12005;SDS011;6062;47.294;12.182;2022-10-16T03:04:07;0.80;;;0.80;;
12005;SDS011;6062;47.294;12.182;2022-10-16T03:06:32;0.52;;;0.52;;
12005;SDS011;6062;47.294;12.182;2022-10-16T03:08:59;0.88;;;0.70;;
12005;SDS011;6062;47.294;12.182;2022-10-16T03:11:25;0.70;;;0.70;;
12005;SDS011;6062;47.294;12.182;2022-10-16T03:13:51;0.70;;;0.70;;
12005;SDS011;6062;47.294;12.182;2022-10-16T03:16:17;0.68;;;0.68;;
12005;SDS011;6062;47.294;12.182;2022-10-16T03:18:42;0.95;;;0.70;;
12005;SDS011;6062;47.294;12.182;2022-10-16T03:21:08;0.88;;;0.70;;
12005;SDS011;6062;47.294;12.182;2022-10-16T03:23:34;0.60;;;0.60;;
12005;SDS011;6062;47.294;12.182;2022-10-16T03:25:59;0.60;;;0.60;;
12005;SDS011;6062;47.294;12.182;2022-10-16T03:28:25;0.77;;;0.70;;
12005;SDS011;6062;47.294;12.182;2022-10-16T03:30:51;0.68;;;0.68;;
12005;SDS011;6062;47.294;12.182;2022-10-16T03:33:16;0.82;;;0.70;;
12005;SDS011;6062;47.294;12.182;2022-10-16T03:35:42;0.70;;;0.70;;
12005;SDS011;6062;47.294;12.182;2022-10-16T03:38:07;0.70;;;0.70;;
12005;SDS011;6062;47.294;12.182;2022-10-16T03:40:33;0.70;;;0.70;;
12005;SDS011;6062;47.294;12.182;2022-10-16T03:42:59;0.60;;;0.60;;
12005;SDS011;6062;47.294;12.182;2022-10-16T03:45:25;0.85;;;0.70;;
12005;SDS011;6062;47.294;12.182;2022-10-16T03:47:52;0.60;;;0.60;;
12005;SDS011;6062;47.294;12.182;2022-10-16T03:50:17;1.10;;;0.80;;
12005;SDS011;6062;47.294;12.182;2022-10-16T03:52:43;0.52;;;0.52;;
12005;SDS011;6062;47.294;12.182;2022-10-16T03:55:08;0.60;;;0.60;;
12005;SDS011;6062;47.294;12.182;2022-10-16T03:57:34;0.70;;;0.70;;
12005;SDS011;6062;47.294;12.182;2022-10-16T04:00:00;0.57;;;0.57;;
12005;SDS011;6062;47.294;12.182;2022-10-16T04:02:26;0.80;;;0.80;;
12005;SDS011;6062;47.294;12.182;2022-10-16T04:04:51;0.60;;;0.60;;
12005;SDS011;6062;47.294;12.182;2022-10-16T04:07:17;0.50;;;0.50;;
12005;SDS011;6062;47.294;12.182;2022-10-16T04:09:43;1.23;;;0.65;;
12005;SDS011;6062;47.294;12.182;2022-10-16T04:12:09;0.95;;;0.80;;
12005;SDS011;6062;47.294;12.182;2022-10-16T04:14:34;0.75;;;0.75;;
12005;SDS011;6062;47.294;12.182;2022-10-16T04:17:00;0.60;;;0.60;;
12005;SDS011;6062;47.294;12.182;2022-10-16T04:19:25;0.60;;;0.60;;
12005;SDS011;6062;47.294;12.182;2022-10-16T04:21:51;0.88;;;0.70;;
12005;SDS011;6062;47.294;12.182;2022-10-16T04:24:17;0.63;;;0.50;;
12005;SDS011;6062;47.294;12.182;2022-10-16T04:26:42;0.55;;;0.55;;
12005;SDS011;6062;47.294;12.182;2022-10-16T04:29:08;0.65;;;0.60;;
12005;SDS011;6062;47.294;12.182;2022-10-16T04:31:34;0.60;;;0.60;;
12005;SDS011;6062;47.294;12.182;2022-10-16T04:33:59;0.50;;;0.50;;
12005;SDS011;6062;47.294;12.182;2022-10-16T04:36:25;0.68;;;0.68;;
12005;SDS011;6062;47.294;12.182;2022-10-16T04:38:51;0.60;;;0.60;;
12005;SDS011;6062;47.294;12.182;2022-10-16T04:41:16;0.50;;;0.50;;
12005;SDS011;6062;47.294;12.182;2022-10-16T04:43:42;0.60;;;0.52;;
12005;SDS011;6062;47.294;12.182;2022-10-16T04:46:08;0.63;;;0.63;;
12005;SDS011;6062;47.294;12.182;2022-10-16T04:48:35;0.68;;;0.68;;
12005;SDS011;6062;47.294;12.182;2022-10-16T04:51:00;0.65;;;0.65;;
12005;SDS011;6062;47.294;12.182;2022-10-16T04:53:26;0.60;;;0.60;;
12005;SDS011;6062;47.294;12.182;2022-10-16T04:55:52;0.60;;;0.60;;
12005;SDS011;6062;47.294;12.182;2022-10-16T04:58:17;0.60;;;0.60;;
12005;SDS011;6062;47.294;12.182;2022-10-16T05:00:43;0.50;;;0.50;;
12005;SDS011;6062;47.294;12.182;2022-10-16T05:03:11;0.60;;;0.60;;
12005;SDS011;6062;47.294;12.182;2022-10-16T05:05:41;2.00;;;0.50;;
12005;SDS011;6062;47.294;12.182;2022-10-16T05:08:09;0.60;;;0.60;;
12005;SDS011;6062;47.294;12.182;2022-10-16T05:10:36;0.50;;;0.50;;
12005;SDS011;6062;47.294;12.182;2022-10-16T05:13:02;0.85;;;0.70;;
12005;SDS011;6062;47.294;12.182;2022-10-16T05:15:28;0.68;;;0.65;;
12005;SDS011;6062;47.294;12.182;2022-10-16T05:17:54;0.60;;;0.60;;
12005;SDS011;6062;47.294;12.182;2022-10-16T05:20:20;0.70;;;0.70;;
12005;SDS011;6062;47.294;12.182;2022-10-16T05:22:47;0.70;;;0.60;;
12005;SDS011;6062;47.294;12.182;2022-10-16T05:25:13;0.70;;;0.70;;
12005;SDS011;6062;47.294;12.182;2022-10-16T05:27:39;0.60;;;0.60;;
12005;SDS011;6062;47.294;12.182;2022-10-16T05:30:04;0.60;;;0.60;;
12005;SDS011;6062;47.294;12.182;2022-10-16T05:32:31;0.50;;;0.50;;
12005;SDS011;6062;47.294;12.182;2022-10-16T05:34:57;1.00;;;0.70;;
12005;SDS011;6062;47.294;12.182;2022-10-16T05:37:24;0.50;;;0.50;;
12005;SDS011;6062;47.294;12.182;2022-10-16T05:39:52;0.60;;;0.60;;
12005;SDS011;6062;47.294;12.182;2022-10-16T05:42:17;0.60;;;0.60;;
12005;SDS011;6062;47.294;12.182;2022-10-16T05:44:43;0.75;;;0.68;;
12005;SDS011;6062;47.294;12.182;2022-10-16T05:47:09;0.90;;;0.68;;
12005;SDS011;6062;47.294;12.182;2022-10-16T05:49:37;0.52;;;0.52;;
12005;SDS011;6062;47.294;12.182;2022-10-16T05:52:03;0.50;;;0.50;;
12005;SDS011;6062;47.294;12.182;2022-10-16T05:54:29;0.63;;;0.63;;
12005;SDS011;6062;47.294;12.182;2022-10-16T05:56:54;0.98;;;0.70;;
12005;SDS011;6062;47.294;12.182;2022-10-16T05:59:20;0.60;;;0.60;;
12005;SDS011;6062;47.294;12.182;2022-10-16T06:01:46;0.57;;;0.57;;
12005;SDS011;6062;47.294;12.182;2022-10-16T06:04:11;1.92;;;0.50;;
12005;SDS011;6062;47.294;12.182;2022-10-16T06:06:37;0.65;;;0.65;;
12005;SDS011;6062;47.294;12.182;2022-10-16T06:09:03;0.50;;;0.50;;
12005;SDS011;6062;47.294;12.182;2022-10-16T06:11:30;0.52;;;0.50;;
12005;SDS011;6062;47.294;12.182;2022-10-16T06:13:58;0.47;;;0.47;;
12005;SDS011;6062;47.294;12.182;2022-10-16T06:16:27;0.60;;;0.60;;
12005;SDS011;6062;47.294;12.182;2022-10-16T06:18:54;1.33;;;0.50;;
12005;SDS011;6062;47.294;12.182;2022-10-16T06:21:25;0.63;;;0.60;;
12005;SDS011;6062;47.294;12.182;2022-10-16T06:23:53;0.50;;;0.50;;
12005;SDS011;6062;47.294;12.182;2022-10-16T06:26:22;0.52;;;0.52;;
12005;SDS011;6062;47.294;12.182;2022-10-16T06:28:53;0.50;;;0.50;;
12005;SDS011;6062;47.294;12.182;2022-10-16T06:31:20;0.50;;;0.50;;
12005;SDS011;6062;47.294;12.182;2022-10-16T06:33:49;0.40;;;0.40;;
12005;SDS011;6062;47.294;12.182;2022-10-16T06:36:16;0.60;;;0.57;;
12005;SDS011;6062;47.294;12.182;2022-10-16T06:38:43;0.30;;;0.30;;
12005;SDS011;6062;47.294;12.182;2022-10-16T06:41:11;0.43;;;0.40;;
12005;SDS011;6062;47.294;12.182;2022-10-16T06:43:43;0.40;;;0.40;;
12005;SDS011;6062;47.294;12.182;2022-10-16T06:46:13;0.77;;;0.43;;
12005;SDS011;6062;47.294;12.182;2022-10-16T06:48:42;0.30;;;0.30;;
12005;SDS011;6062;47.294;12.182;2022-10-16T06:51:09;0.40;;;0.40;;
12005;SDS011;6062;47.294;12.182;2022-10-16T06:53:42;0.40;;;0.20;;
12005;SDS011;6062;47.294;12.182;2022-10-16T06:56:20;0.30;;;0.30;;
12005;SDS011;6062;47.294;12.182;2022-10-16T06:58:49;0.30;;;0.30;;
12005;SDS011;6062;47.294;12.182;2022-10-16T07:01:16;1.08;;;0.45;;
12005;SDS011;6062;47.294;12.182;2022-10-16T07:03:46;0.20;;;0.20;;
12005;SDS011;6062;47.294;12.182;2022-10-16T07:06:14;0.35;;;0.30;;
12005;SDS011;6062;47.294;12.182;2022-10-16T07:08:45;0.20;;;0.20;;
12005;SDS011;6062;47.294;12.182;2022-10-16T07:11:14;0.40;;;0.25;;
12005;SDS011;6062;47.294;12.182;2022-10-16T07:13:46;0.20;;;0.20;;
12005;SDS011;6062;47.294;12.182;2022-10-16T07:16:14;0.30;;;0.30;;
12005;SDS011;6062;47.294;12.182;2022-10-16T07:18:43;0.35;;;0.35;;
12005;SDS011;6062;47.294;12.182;2022-10-16T07:21:15;0.38;;;0.38;;
12005;SDS011;6062;47.294;12.182;2022-10-16T07:23:44;0.50;;;0.50;;
12005;SDS011;6062;47.294;12.182;2022-10-16T07:26:10;0.50;;;0.40;;
12005;SDS011;6062;47.294;12.182;2022-10-16T07:28:36;0.50;;;0.40;;
12005;SDS011;6062;47.294;12.182;2022-10-16T07:31:04;0.40;;;0.40;;
12005;SDS011;6062;47.294;12.182;2022-10-16T07:33:35;0.50;;;0.50;;
12005;SDS011;6062;47.294;12.182;2022-10-16T07:36:03;1.63;;;0.60;;
12005;SDS011;6062;47.294;12.182;2022-10-16T07:38:29;0.85;;;0.60;;
12005;SDS011;6062;47.294;12.182;2022-10-16T07:40:59;0.32;;;0.32;;
12005;SDS011;6062;47.294;12.182;2022-10-16T07:43:28;0.80;;;0.60;;
12005;SDS011;6062;47.294;12.182;2022-10-16T07:45:55;1.38;;;0.50;;
12005;SDS011;6062;47.294;12.182;2022-10-16T07:48:21;0.43;;;0.43;;
12005;SDS011;6062;47.294;12.182;2022-10-16T07:50:48;0.60;;;0.60;;
12005;SDS011;6062;47.294;12.182;2022-10-16T07:53:14;0.40;;;0.40;;
12005;SDS011;6062;47.294;12.182;2022-10-16T07:55:40;1.80;;;1.00;;
12005;SDS011;6062;47.294;12.182;2022-10-16T07:58:06;0.70;;;0.60;;
12005;SDS011;6062;47.294;12.182;2022-10-16T08:00:32;1.40;;;1.30;;
12005;SDS011;6062;47.294;12.182;2022-10-16T08:02:59;2.60;;;2.40;;
12005;SDS011;6062;47.294;12.182;2022-10-16T08:05:26;5.40;;;4.88;;
12005;SDS011;6062;47.294;12.182;2022-10-16T08:07:57;2.10;;;1.90;;
12005;SDS011;6062;47.294;12.182;2022-10-16T08:10:23;2.28;;;2.17;;
12005;SDS011;6062;47.294;12.182;2022-10-16T08:12:52;0.70;;;0.70;;
12005;SDS011;6062;47.294;12.182;2022-10-16T08:15:18;1.30;;;1.20;;
12005;SDS011;6062;47.294;12.182;2022-10-16T08:17:45;9.02;;;8.00;;
12005;SDS011;6062;47.294;12.182;2022-10-16T08:20:21;1.50;;;1.40;;
12005;SDS011;6062;47.294;12.182;2022-10-16T08:22:46;1.90;;;1.60;;
12005;SDS011;6062;47.294;12.182;2022-10-16T08:25:12;0.80;;;0.80;;
12005;SDS011;6062;47.294;12.182;2022-10-16T08:27:38;0.90;;;0.90;;
12005;SDS011;6062;47.294;12.182;2022-10-16T08:30:03;1.70;;;1.60;;
12005;SDS011;6062;47.294;12.182;2022-10-16T08:32:30;1.10;;;1.00;;
12005;SDS011;6062;47.294;12.182;2022-10-16T08:34:55;2.28;;;2.05;;
12005;SDS011;6062;47.294;12.182;2022-10-16T08:37:21;2.05;;;1.85;;
12005;SDS011;6062;47.294;12.182;2022-10-16T08:39:47;1.40;;;1.30;;
12005;SDS011;6062;47.294;12.182;2022-10-16T08:48:15;1.60;;;1.50;;
12005;SDS011;6062;47.294;12.182;2022-10-16T08:50:55;3.00;;;2.50;;
12005;SDS011;6062;47.294;12.182;2022-10-16T08:53:23;2.42;;;1.85;;
12005;SDS011;6062;47.294;12.182;2022-10-16T08:56:00;5.18;;;4.18;;
12005;SDS011;6062;47.294;12.182;2022-10-16T08:58:27;1.60;;;1.30;;
12005;SDS011;6062;47.294;12.182;2022-10-16T09:00:59;1.60;;;0.65;;
12005;SDS011;6062;47.294;12.182;2022-10-16T09:03:32;0.30;;;0.30;;
12005;SDS011;6062;47.294;12.182;2022-10-16T09:06:30;0.45;;;0.45;;
12005;SDS011;6062;47.294;12.182;2022-10-16T09:09:23;2.78;;;2.58;;
12005;SDS011;6062;47.294;12.182;2022-10-16T09:12:30;1.00;;;0.80;;
12005;SDS011;6062;47.294;12.182;2022-10-16T09:15:20;1.30;;;0.30;;
12005;SDS011;6062;47.294;12.182;2022-10-16T09:18:17;0.20;;;0.20;;
12005;SDS011;6062;47.294;12.182;2022-10-16T09:21:09;0.35;;;0.32;;
12005;SDS011;6062;47.294;12.182;2022-10-16T09:23:45;0.40;;;0.40;;
12005;SDS011;6062;47.294;12.182;2022-10-16T09:26:13;0.40;;;0.40;;
12005;SDS011;6062;47.294;12.182;2022-10-16T09:28:41;0.40;;;0.40;;
12005;SDS011;6062;47.294;12.182;2022-10-16T09:31:17;0.60;;;0.50;;
12005;SDS011;6062;47.294;12.182;2022-10-16T09:33:48;0.75;;;0.50;;
12005;SDS011;6062;47.294;12.182;2022-10-16T09:36:22;0.50;;;0.50;;
12005;SDS011;6062;47.294;12.182;2022-10-16T09:39:01;0.52;;;0.52;;
12005;SDS011;6062;47.294;12.182;2022-10-16T09:41:30;0.60;;;0.60;;
12005;SDS011;6062;47.294;12.182;2022-10-16T09:44:01;0.80;;;0.60;;
12005;SDS011;6062;47.294;12.182;2022-10-16T09:46:31;0.80;;;0.50;;
12005;SDS011;6062;47.294;12.182;2022-10-16T09:49:00;0.80;;;0.60;;
12005;SDS011;6062;47.294;12.182;2022-10-16T09:51:34;0.60;;;0.60;;
12005;SDS011;6062;47.294;12.182;2022-10-16T09:54:12;1.10;;;0.70;;
12005;SDS011;6062;47.294;12.182;2022-10-16T09:56:41;0.50;;;0.50;;
12005;SDS011;6062;47.294;12.182;2022-10-16T10:01:56;0.95;;;0.60;;
12005;SDS011;6062;47.294;12.182;2022-10-16T10:04:36;0.70;;;0.68;;
12005;SDS011;6062;47.294;12.182;2022-10-16T10:07:16;0.55;;;0.52;;
12005;SDS011;6062;47.294;12.182;2022-10-16T10:09:49;0.85;;;0.68;;
12005;SDS011;6062;47.294;12.182;2022-10-16T10:12:32;0.88;;;0.50;;
12005;SDS011;6062;47.294;12.182;2022-10-16T10:15:11;0.40;;;0.40;;
12005;SDS011;6062;47.294;12.182;2022-10-16T10:17:45;0.73;;;0.60;;
12005;SDS011;6062;47.294;12.182;2022-10-16T10:23:00;0.50;;;0.50;;
12005;SDS011;6062;47.294;12.182;2022-10-16T10:25:53;0.45;;;0.45;;
12005;SDS011;6062;47.294;12.182;2022-10-16T10:31:53;0.77;;;0.60;;
12005;SDS011;6062;47.294;12.182;2022-10-16T10:34:35;0.57;;;0.57;;
12005;SDS011;6062;47.294;12.182;2022-10-16T10:37:31;0.52;;;0.52;;
12005;SDS011;6062;47.294;12.182;2022-10-16T10:43:04;0.90;;;0.80;;
12005;SDS011;6062;47.294;12.182;2022-10-16T10:45:47;0.57;;;0.50;;
12005;SDS011;6062;47.294;12.182;2022-10-16T10:48:22;0.60;;;0.60;;
12005;SDS011;6062;47.294;12.182;2022-10-16T10:51:17;0.65;;;0.60;;
12005;SDS011;6062;47.294;12.182;2022-10-16T10:57:15;0.40;;;0.40;;
12005;SDS011;6062;47.294;12.182;2022-10-16T10:59:55;0.50;;;0.50;;
12005;SDS011;6062;47.294;12.182;2022-10-16T11:08:35;0.47;;;0.47;;
12005;SDS011;6062;47.294;12.182;2022-10-16T11:11:23;0.52;;;0.50;;
12005;SDS011;6062;47.294;12.182;2022-10-16T11:14:06;0.57;;;0.43;;
12005;SDS011;6062;47.294;12.182;2022-10-16T11:17:39;0.85;;;0.70;;
12005;SDS011;6062;47.294;12.182;2022-10-16T11:22:40;0.50;;;0.50;;
12005;SDS011;6062;47.294;12.182;2022-10-16T11:25:14;0.50;;;0.50;;
12005;SDS011;6062;47.294;12.182;2022-10-16T11:30:34;1.08;;;0.80;;
12005;SDS011;6062;47.294;12.182;2022-10-16T11:33:27;0.75;;;0.60;;
12005;SDS011;6062;47.294;12.182;2022-10-16T11:41:24;0.65;;;0.60;;
12005;SDS011;6062;47.294;12.182;2022-10-16T11:46:40;0.70;;;0.60;;
12005;SDS011;6062;47.294;12.182;2022-10-16T11:49:14;0.50;;;0.50;;
12005;SDS011;6062;47.294;12.182;2022-10-16T11:51:48;0.65;;;0.63;;
12005;SDS011;6062;47.294;12.182;2022-10-16T11:54:32;1.83;;;0.60;;
12005;SDS011;6062;47.294;12.182;2022-10-16T11:57:31;0.80;;;0.60;;
12005;SDS011;6062;47.294;12.182;2022-10-16T12:00:06;0.60;;;0.60;;
12005;SDS011;6062;47.294;12.182;2022-10-16T12:02:58;0.50;;;0.50;;
12005;SDS011;6062;47.294;12.182;2022-10-16T12:08:59;0.88;;;0.80;;
12005;SDS011;6062;47.294;12.182;2022-10-16T12:13:51;0.60;;;0.60;;
12005;SDS011;6062;47.294;12.182;2022-10-16T12:19:20;0.75;;;0.50;;
12005;SDS011;6062;47.294;12.182;2022-10-16T12:21:48;0.80;;;0.75;;
12005;SDS011;6062;47.294;12.182;2022-10-16T12:27:17;1.88;;;0.60;;
12005;SDS011;6062;47.294;12.182;2022-10-16T12:29:54;0.82;;;0.70;;
12005;SDS011;6062;47.294;12.182;2022-10-16T12:32:32;0.77;;;0.75;;
12005;SDS011;6062;47.294;12.182;2022-10-16T12:35:02;0.70;;;0.70;;
12005;SDS011;6062;47.294;12.182;2022-10-16T12:37:34;0.60;;;0.60;;
12005;SDS011;6062;47.294;12.182;2022-10-16T12:40:13;0.70;;;0.70;;
12005;SDS011;6062;47.294;12.182;2022-10-16T12:42:49;0.60;;;0.60;;
12005;SDS011;6062;47.294;12.182;2022-10-16T12:45:31;0.77;;;0.70;;
12005;SDS011;6062;47.294;12.182;2022-10-16T12:47:59;0.50;;;0.50;;
12005;SDS011;6062;47.294;12.182;2022-10-16T12:50:33;0.73;;;0.57;;
12005;SDS011;6062;47.294;12.182;2022-10-16T12:53:03;0.90;;;0.77;;
12005;SDS011;6062;47.294;12.182;2022-10-16T12:55:50;0.70;;;0.70;;
12005;SDS011;6062;47.294;12.182;2022-10-16T13:01:27;0.50;;;0.50;;
12005;SDS011;6062;47.294;12.182;2022-10-16T13:04:15;0.60;;;0.60;;
12005;SDS011;6062;47.294;12.182;2022-10-16T13:16:12;0.60;;;0.60;;
12005;SDS011;6062;47.294;12.182;2022-10-16T13:24:42;0.68;;;0.68;;
12005;SDS011;6062;47.294;12.182;2022-10-16T13:30:29;1.27;;;0.63;;
12005;SDS011;6062;47.294;12.182;2022-10-16T13:33:10;0.60;;;0.60;;
12005;SDS011;6062;47.294;12.182;2022-10-16T13:35:52;0.60;;;0.60;;
12005;SDS011;6062;47.294;12.182;2022-10-16T13:38:21;0.63;;;0.52;;
12005;SDS011;6062;47.294;12.182;2022-10-16T13:43:25;0.55;;;0.55;;
12005;SDS011;6062;47.294;12.182;2022-10-16T13:46:03;0.50;;;0.50;;
12005;SDS011;6062;47.294;12.182;2022-10-16T13:48:32;1.13;;;0.70;;
12005;SDS011;6062;47.294;12.182;2022-10-16T13:51:00;0.50;;;0.50;;
12005;SDS011;6062;47.294;12.182;2022-10-16T13:53:33;0.68;;;0.68;;
12005;SDS011;6062;47.294;12.182;2022-10-16T13:56:01;0.80;;;0.60;;
12005;SDS011;6062;47.294;12.182;2022-10-16T13:58:30;0.60;;;0.60;;
12005;SDS011;6062;47.294;12.182;2022-10-16T14:00:57;0.70;;;0.60;;
12005;SDS011;6062;47.294;12.182;2022-10-16T14:03:26;0.50;;;0.50;;
12005;SDS011;6062;47.294;12.182;2022-10-16T14:06:03;0.90;;;0.60;;
12005;SDS011;6062;47.294;12.182;2022-10-16T14:08:41;0.70;;;0.70;;
12005;SDS011;6062;47.294;12.182;2022-10-16T14:11:10;0.57;;;0.52;;
12005;SDS011;6062;47.294;12.182;2022-10-16T14:13:38;1.83;;;0.60;;
12005;SDS011;6062;47.294;12.182;2022-10-16T14:16:09;3.50;;;0.77;;
12005;SDS011;6062;47.294;12.182;2022-10-16T14:18:44;0.60;;;0.60;;
12005;SDS011;6062;47.294;12.182;2022-10-16T14:21:20;0.60;;;0.50;;
12005;SDS011;6062;47.294;12.182;2022-10-16T14:23:45;0.80;;;0.70;;
12005;SDS011;6062;47.294;12.182;2022-10-16T14:26:12;0.57;;;0.50;;
12005;SDS011;6062;47.294;12.182;2022-10-16T14:28:42;0.77;;;0.70;;
12005;SDS011;6062;47.294;12.182;2022-10-16T14:33:57;1.08;;;0.60;;
12005;SDS011;6062;47.294;12.182;2022-10-16T14:36:25;0.65;;;0.65;;
12005;SDS011;6062;47.294;12.182;2022-10-16T14:41:46;0.60;;;0.60;;
12005;SDS011;6062;47.294;12.182;2022-10-16T14:44:15;0.70;;;0.70;;
12005;SDS011;6062;47.294;12.182;2022-10-16T14:46:43;0.60;;;0.60;;
12005;SDS011;6062;47.294;12.182;2022-10-16T14:51:36;1.05;;;0.60;;
12005;SDS011;6062;47.294;12.182;2022-10-16T14:54:07;0.50;;;0.50;;
12005;SDS011;6062;47.294;12.182;2022-10-16T14:59:17;0.95;;;0.57;;
12005;SDS011;6062;47.294;12.182;2022-10-16T15:01:49;0.60;;;0.60;;
12005;SDS011;6062;47.294;12.182;2022-10-16T15:04:15;0.70;;;0.70;;
12005;SDS011;6062;47.294;12.182;2022-10-16T15:06:41;0.60;;;0.60;;
12005;SDS011;6062;47.294;12.182;2022-10-16T15:09:07;0.75;;;0.65;;
12005;SDS011;6062;47.294;12.182;2022-10-16T15:11:33;0.57;;;0.57;;
12005;SDS011;6062;47.294;12.182;2022-10-16T15:13:59;0.75;;;0.60;;
12005;SDS011;6062;47.294;12.182;2022-10-16T15:16:25;1.05;;;0.68;;
12005;SDS011;6062;47.294;12.182;2022-10-16T15:18:50;0.70;;;0.70;;
12005;SDS011;6062;47.294;12.182;2022-10-16T15:21:22;1.05;;;0.88;;
12005;SDS011;6062;47.294;12.182;2022-10-16T15:23:52;0.60;;;0.60;;
12005;SDS011;6062;47.294;12.182;2022-10-16T15:26:19;0.73;;;0.70;;
12005;SDS011;6062;47.294;12.182;2022-10-16T15:28:44;0.90;;;0.80;;
12005;SDS011;6062;47.294;12.182;2022-10-16T15:31:10;0.63;;;0.63;;
12005;SDS011;6062;47.294;12.182;2022-10-16T15:33:36;0.95;;;0.80;;
12005;SDS011;6062;47.294;12.182;2022-10-16T15:36:01;0.95;;;0.88;;
12005;SDS011;6062;47.294;12.182;2022-10-16T15:38:28;0.88;;;0.82;;
12005;SDS011;6062;47.294;12.182;2022-10-16T15:40:55;1.20;;;0.90;;
12005;SDS011;6062;47.294;12.182;2022-10-16T15:43:21;0.80;;;0.80;;
12005;SDS011;6062;47.294;12.182;2022-10-16T15:46:10;1.52;;;0.90;;
12005;SDS011;6062;47.294;12.182;2022-10-16T15:48:37;3.50;;;3.17;;
12005;SDS011;6062;47.294;12.182;2022-10-16T15:51:06;4.45;;;4.05;;
12005;SDS011;6062;47.294;12.182;2022-10-16T15:53:33;4.55;;;3.67;;
12005;SDS011;6062;47.294;12.182;2022-10-16T15:56:02;7.53;;;6.93;;
12005;SDS011;6062;47.294;12.182;2022-10-16T15:58:30;4.43;;;3.70;;
12005;SDS011;6062;47.294;12.182;2022-10-16T16:00:56;5.20;;;4.70;;
12005;SDS011;6062;47.294;12.182;2022-10-16T16:03:25;3.70;;;3.45;;
12005;SDS011;6062;47.294;12.182;2022-10-16T16:05:51;3.22;;;3.03;;
12005;SDS011;6062;47.294;12.182;2022-10-16T16:08:16;2.70;;;2.50;;
12005;SDS011;6062;47.294;12.182;2022-10-16T16:10:42;3.42;;;3.22;;
12005;SDS011;6062;47.294;12.182;2022-10-16T16:13:08;1.80;;;1.70;;
12005;SDS011;6062;47.294;12.182;2022-10-16T16:15:33;1.77;;;1.67;;
12005;SDS011;6062;47.294;12.182;2022-10-16T16:17:59;1.50;;;1.40;;
12005;SDS011;6062;47.294;12.182;2022-10-16T16:20:27;1.95;;;1.70;;
12005;SDS011;6062;47.294;12.182;2022-10-16T16:22:52;1.10;;;1.00;;
12005;SDS011;6062;47.294;12.182;2022-10-16T16:25:18;1.60;;;1.35;;
12005;SDS011;6062;47.294;12.182;2022-10-16T16:27:44;1.48;;;1.23;;
12005;SDS011;6062;47.294;12.182;2022-10-16T16:30:10;1.20;;;1.00;;
12005;SDS011;6062;47.294;12.182;2022-10-16T16:32:36;1.20;;;1.10;;
12005;SDS011;6062;47.294;12.182;2022-10-16T16:35:03;0.90;;;0.90;;
12005;SDS011;6062;47.294;12.182;2022-10-16T16:37:29;1.08;;;0.98;;
12005;SDS011;6062;47.294;12.182;2022-10-16T16:39:56;1.40;;;1.00;;
12005;SDS011;6062;47.294;12.182;2022-10-16T16:42:23;1.00;;;0.90;;
12005;SDS011;6062;47.294;12.182;2022-10-16T16:44:52;1.00;;;0.90;;
12005;SDS011;6062;47.294;12.182;2022-10-16T16:47:18;1.52;;;1.05;;
12005;SDS011;6062;47.294;12.182;2022-10-16T16:49:44;0.95;;;0.80;;